Time;durP1;ratioP1;P1;durP2;ratioP2;P2;SDS_P1;SDS_P2;PMS_P1;PMS_P2;Temp;Humidity;BMP_temperature;BMP_pressure;BME280_temperature;BME280_humidity;BME280_pressure;Samples;Min_cycle;Max_cycle;Signal;HPM_P1;HPM_P2
2022/07/25 00:00:41;;;;;;;2.55;2.08;;;;;;;21.84;86.28;101055.13;5022147;28;20435;-85
2022/07/25 00:03:07;;;;;;;2.42;2.20;;;;;;;21.81;86.57;101050.91;5004374;28;20096;-84
2022/07/25 00:05:32;;;;;;;3.08;2.58;;;;;;;21.79;86.83;101044.78;5022176;28;20116;-84
2022/07/25 00:08:01;;;;;;;3.03;2.72;;;;;;;21.79;86.89;101044.78;5021578;28;20753;-83
2022/07/25 00:10:26;;;;;;;3.70;2.67;;;;;;;21.79;87.36;101039.38;5025161;28;20086;-83
2022/07/25 00:12:52;;;;;;;4.18;2.58;;;;;;;21.78;87.62;101042.25;5025885;28;20030;-83
2022/07/25 00:15:17;;;;;;;3.22;2.45;;;;;;;21.76;87.93;101034.28;5008002;28;20761;-83
2022/07/25 00:17:43;;;;;;;4.63;2.95;;;;;;;21.74;88.18;101036.28;5025937;28;20400;-83
2022/07/25 00:20:09;;;;;;;3.28;2.97;;;;;;;21.71;88.36;101036.53;5025764;28;20041;-84
2022/07/25 00:22:34;;;;;;;4.07;3.22;;;;;;;21.68;88.70;101032.25;5007658;28;20107;-83
2022/07/25 00:25:00;;;;;;;3.55;3.05;;;;;;;21.67;88.72;101033.22;5007514;28;20072;-82
2022/07/25 00:27:25;;;;;;;3.60;3.03;;;;;;;21.67;88.50;101029.69;5026279;28;20124;-85
2022/07/25 00:29:51;;;;;;;3.42;3.13;;;;;;;21.65;88.76;101026.28;5025908;28;20155;-84
2022/07/25 00:32:17;;;;;;;4.35;3.00;;;;;;;21.65;88.53;101020.88;5026046;28;20144;-83
2022/07/25 00:34:42;;;;;;;4.00;2.90;;;;;;;21.62;88.51;101018.50;5026032;28;20484;-84
2022/07/25 00:37:08;;;;;;;2.90;2.47;;;;;;;21.60;88.69;101012.38;5025381;28;20383;-83
2022/07/25 00:39:33;;;;;;;3.33;2.60;;;;;;;21.55;88.76;101013.66;5007892;28;20029;-83
2022/07/25 00:41:59;;;;;;;3.63;2.75;;;;;;;21.52;89.15;101008.53;5025897;28;20029;-84
2022/07/25 00:44:26;;;;;;;3.03;2.70;;;;;;;21.49;89.15;100997.19;5025779;28;20033;-84
2022/07/25 00:46:53;;;;;;;3.70;2.63;;;;;;;21.46;89.77;100995.59;5026037;28;20102;-84
2022/07/25 00:49:18;;;;;;;3.10;2.70;;;;;;;21.42;89.88;100996.88;5025609;28;20567;-83
2022/07/25 00:51:47;;;;;;;3.15;2.75;;;;;;;;;;5023472;28;20029;-82
2022/07/25 00:54:13;;;;;;;3.92;2.47;;;;;;;21.37;90.35;101001.81;5025597;28;20120;-83
2022/07/25 00:56:39;;;;;;;4.20;2.80;;;;;;;21.33;90.49;100995.00;4993660;28;20312;-82
2022/07/25 00:59:05;;;;;;;3.60;3.03;;;;;;;21.30;90.43;101001.53;5025374;28;20034;-84
2022/07/25 01:01:31;;;;;;;3.40;3.10;;;;;;;21.25;90.67;100999.22;5007403;28;20072;-84
2022/07/25 01:03:57;;;;;;;3.15;2.85;;;;;;;21.22;90.86;100988.75;5010059;28;20403;-83
2022/07/25 01:06:25;;;;;;;3.90;3.08;;;;;;;21.19;91.20;100982.78;5024819;28;21010;-83
2022/07/25 01:08:52;;;;;;;4.65;2.80;;;;;;;21.12;91.13;100980.63;4993320;28;20056;-82
2022/07/25 01:11:18;;;;;;;3.85;2.88;;;;;;;21.08;91.22;100975.66;5007272;28;20032;-82
2022/07/25 01:13:44;;;;;;;3.80;3.03;;;;;;;21.03;91.54;100979.59;5024778;28;20041;-83
2022/07/25 01:16:09;;;;;;;3.55;2.90;;;;;;;21.02;91.98;100974.34;5007158;28;20029;-84
2022/07/25 01:18:35;;;;;;;4.25;3.20;;;;;;;20.99;92.09;100978.19;5024818;28;20039;-84
2022/07/25 01:21:01;;;;;;;3.50;2.85;;;;;;;20.95;92.35;100975.88;5025222;28;20036;-84
2022/07/25 01:23:27;;;;;;;4.07;3.10;;;;;;;20.88;92.65;100971.03;5007735;28;20049;-84
2022/07/25 01:25:52;;;;;;;4.45;3.35;;;;;;;20.86;92.98;100970.31;5025393;28;20037;-86
2022/07/25 01:28:18;;;;;;;3.45;3.10;;;;;;;20.82;93.68;100971.56;5024274;28;20033;-82
2022/07/25 01:30:44;;;;;;;3.85;3.38;;;;;;;20.81;94.80;100963.63;5024698;28;20025;-84
2022/07/25 01:33:16;;;;;;;4.30;3.42;;;;;;;20.76;95.49;100956.78;4993209;28;20025;-84
2022/07/25 01:35:42;;;;;;;5.13;3.60;;;;;;;20.75;96.20;100952.41;5024673;28;20037;-83
2022/07/25 01:38:08;;;;;;;5.13;3.53;;;;;;;20.74;96.73;100953.38;5025366;28;20049;-84
2022/07/25 01:40:33;;;;;;;5.00;3.50;;;;;;;20.71;97.18;100948.25;5025317;28;20057;-84
2022/07/25 01:42:59;;;;;;;4.43;3.88;;;;;;;20.70;98.02;100941.19;5024610;28;20029;-85
2022/07/25 01:45:24;;;;;;;4.93;4.28;;;;;;;20.70;98.58;100930.44;5025198;28;20956;-85
2022/07/25 01:47:50;;;;;;;5.18;4.25;;;;;;;20.71;99.46;100925.91;5025955;28;20663;-85
2022/07/25 01:50:15;;;;;;;5.15;4.00;;;;;;;20.69;99.43;100919.81;5024543;28;20025;-83
2022/07/25 01:52:41;;;;;;;4.63;3.95;;;;;;;20.70;99.79;100921.53;5024971;28;20463;-83
2022/07/25 01:55:07;;;;;;;4.85;3.90;;;;;;;20.71;100.00;100915.16;5024312;28;20083;-84
2022/07/25 01:57:35;;;;;;;5.85;3.95;;;;;;;20.74;100.00;100920.25;5024204;28;20422;-86
2022/07/25 02:00:01;;;;;;;4.38;3.78;;;;;;;20.75;100.00;100911.19;5024523;28;20051;-83
2022/07/25 02:02:26;;;;;;;5.93;4.25;;;;;;;20.76;100.00;100912.91;5024797;28;20037;-87
2022/07/25 02:04:53;;;;;;;7.55;4.07;;;;;;;20.77;100.00;100910.06;5024670;28;20096;-85
2022/07/25 02:07:18;;;;;;;6.55;4.18;;;;;;;20.78;100.00;100905.56;4968605;28;20033;-84
2022/07/25 02:09:47;;;;;;;4.57;3.88;;;;;;;20.77;100.00;100903.84;5022681;28;20056;-84
2022/07/25 02:12:12;;;;;;;5.35;4.43;;;;;;;20.78;100.00;100897.47;5009111;28;20042;-83
2022/07/25 02:14:38;;;;;;;5.75;4.47;;;;;;;20.78;99.96;100892.09;5023331;28;20108;-85
2022/07/25 02:17:03;;;;;;;4.60;4.05;;;;;;;20.76;99.60;100891.41;5024155;28;20059;-84
2022/07/25 02:19:29;;;;;;;5.53;4.40;;;;;;;20.74;99.28;100883.44;5024061;28;20036;-84
2022/07/25 02:21:54;;;;;;;4.95;4.28;;;;;;;20.73;98.94;100880.88;5025314;28;20449;-84
2022/07/25 02:24:20;;;;;;;7.05;4.60;;;;;;;20.72;98.79;100872.00;5024715;28;20124;-84
2022/07/25 02:26:45;;;;;;;5.63;4.82;;;;;;;20.73;98.93;100880.88;5024408;28;20045;-85
2022/07/25 02:29:13;;;;;;;6.00;4.55;;;;;;;20.71;98.39;100878.34;5023632;28;20059;-84
2022/07/25 02:31:38;;;;;;;6.80;5.00;;;;;;;20.69;98.61;100866.88;4987738;28;20139;-84
2022/07/25 02:34:04;;;;;;;6.38;4.90;;;;;;;20.66;98.66;100859.09;5024141;28;20614;-84
2022/07/25 02:36:29;;;;;;;5.88;4.97;;;;;;;20.62;98.66;100860.31;5023879;28;20042;-85
2022/07/25 02:38:55;;;;;;;6.20;4.75;;;;;;;20.60;98.76;100852.38;5024713;28;20039;-84
2022/07/25 02:41:20;;;;;;;6.85;5.13;;;;;;;20.59;98.92;100842.63;5022329;28;20029;-83
2022/07/25 02:43:46;;;;;;;5.65;4.22;;;;;;;20.58;99.00;100840.06;5024068;28;20060;-83
2022/07/25 02:46:11;;;;;;;6.13;4.78;;;;;;;20.57;98.97;100838.38;5023723;28;20037;-83
2022/07/25 02:48:37;;;;;;;6.63;4.40;;;;;;;20.54;98.65;100834.09;5023279;28;20029;-83
2022/07/25 02:51:02;;;;;;;7.25;4.80;;;;;;;20.51;98.81;100818.25;5008622;28;20459;-84
2022/07/25 02:53:28;;;;;;;6.65;4.80;;;;;;;20.48;99.14;100814.00;5024521;28;20044;-83
2022/07/25 02:55:53;;;;;;;8.25;5.43;;;;;;;20.45;99.42;100813.41;5005755;28;20029;-84
2022/07/25 02:58:19;;;;;;;7.05;4.75;;;;;;;20.45;99.65;100813.41;5023496;28;20037;-83
2022/07/25 03:00:44;;;;;;;6.82;5.10;;;;;;;20.42;99.74;100814.53;5023106;28;20416;-84
2022/07/25 03:03:10;;;;;;;6.28;4.78;;;;;;;20.40;99.67;100803.06;5024267;28;20042;-84
2022/07/25 03:05:35;;;;;;;7.60;5.22;;;;;;;20.35;99.68;100800.78;5024359;28;20035;-88
2022/07/25 03:08:00;;;;;;;6.55;4.80;;;;;;;20.34;99.72;100790.16;5005478;28;20490;-85
2022/07/25 03:10:26;;;;;;;8.50;5.40;;;;;;;20.33;99.87;100783.09;5023112;28;20124;-86
2022/07/25 03:12:51;;;;;;;7.78;4.82;;;;;;;20.33;99.93;100772.34;5022971;28;20397;-85
2022/07/25 03:15:17;;;;;;;6.53;4.88;;;;;;;20.31;100.00;100764.41;5022749;28;20041;-84
2022/07/25 03:17:42;;;;;;;6.50;5.00;;;;;;;20.31;100.00;100769.78;5023052;28;20037;-84
2022/07/25 03:20:08;;;;;;;6.55;4.88;;;;;;;20.31;100.00;100766.22;5022484;28;20640;-85
2022/07/25 03:22:34;;;;;;;6.05;5.10;;;;;;;20.31;100.00;100768.91;5005287;28;20043;-86
2022/07/25 03:24:59;;;;;;;6.85;4.63;;;;;;;20.29;100.00;100762.84;5022835;28;20060;-85
2022/07/25 03:27:26;;;;;;;6.72;4.82;;;;;;;20.25;100.00;100769.50;5022485;28;20041;-85
2022/07/25 03:29:53;;;;;;;7.28;5.25;;;;;;;20.22;100.00;100771.44;5022557;28;20075;-84
2022/07/25 03:32:18;;;;;;;5.55;4.65;;;;;;;20.17;100.00;100765.63;5022738;28;20091;-86
2022/07/25 03:34:44;;;;;;;6.82;5.20;;;;;;;20.14;100.00;100773.94;5022405;28;20679;-84
2022/07/25 03:37:11;;;;;;;5.68;4.63;;;;;;;20.11;100.00;100768.88;5005055;28;20025;-83
2022/07/25 03:39:37;;;;;;;5.53;4.85;;;;;;;20.08;100.00;100766.44;5022522;28;20479;-84
2022/07/25 03:42:02;;;;;;;6.38;4.50;;;;;;;20.04;100.00;100765.00;5022110;28;20715;-85
2022/07/25 03:44:28;;;;;;;7.15;4.80;;;;;;;20.01;100.00;100752.69;5021745;28;20175;-85
2022/07/25 03:46:53;;;;;;;6.25;5.20;;;;;;;20.00;100.00;100753.66;5022062;28;20033;-84
2022/07/25 03:49:19;;;;;;;7.75;5.60;;;;;;;19.97;100.00;100751.25;5021920;28;20442;-85
2022/07/25 03:51:44;;;;;;;7.35;5.25;;;;;;;19.94;100.00;100755.00;5004801;28;20076;-83
2022/07/25 03:54:13;;;;;;;6.68;5.25;;;;;;;19.93;100.00;100750.63;5022386;28;21463;-84
2022/07/25 03:56:45;;;;;;;5.75;4.78;;;;;;;19.92;100.00;100756.13;5021799;28;20072;-84
2022/07/25 03:59:17;;;;;;;6.47;4.85;;;;;;;19.90;100.00;100761.66;5023015;28;20041;-84
2022/07/25 04:01:43;;;;;;;5.70;4.82;;;;;;;19.89;100.00;100770.66;5005291;28;20049;-85
2022/07/25 04:04:09;;;;;;;6.90;4.90;;;;;;;19.86;100.00;100765.59;5003827;28;20060;-82
2022/07/25 04:06:36;;;;;;;6.22;4.50;;;;;;;19.85;100.00;100754.97;4990463;28;20029;-83
2022/07/25 04:09:02;;;;;;;6.20;4.78;;;;;;;19.85;100.00;100755.81;5022119;28;20148;-84
2022/07/25 04:11:29;;;;;;;6.68;5.00;;;;;;;19.85;100.00;100753.13;5003922;28;20106;-84
2022/07/25 04:13:55;;;;;;;5.85;4.53;;;;;;;19.85;100.00;100755.81;5022254;28;20155;-84
2022/07/25 04:16:21;;;;;;;5.30;4.10;;;;;;;19.85;100.00;100753.13;5023140;28;20604;-84
2022/07/25 04:18:47;;;;;;;6.55;4.80;;;;;;;19.87;100.00;100747.66;5023020;28;20108;-85
2022/07/25 04:21:12;;;;;;;6.18;4.18;;;;;;;19.86;100.00;100749.47;4987979;28;20509;-85
2022/07/25 04:23:38;;;;;;;6.30;4.88;;;;;;;19.86;100.00;100746.78;5023985;28;20033;-85
2022/07/25 04:26:04;;;;;;;6.05;4.57;;;;;;;19.86;100.00;100746.78;5005080;28;20021;-85
2022/07/25 04:28:29;;;;;;;6.13;4.32;;;;;;;19.86;100.00;100743.22;5020790;28;20046;-84
2022/07/25 04:30:55;;;;;;;5.70;4.35;;;;;;;19.86;100.00;100745.91;4990105;28;20029;-85
2022/07/25 04:33:21;;;;;;;5.85;4.40;;;;;;;19.87;100.00;100755.69;5021979;28;20033;-85
2022/07/25 04:35:47;;;;;;;5.22;4.20;;;;;;;19.88;100.00;100746.66;5021964;28;20041;-83
2022/07/25 04:38:12;;;;;;;5.40;4.05;;;;;;;19.88;100.00;100747.50;5022267;28;20031;-84
2022/07/25 04:40:38;;;;;;;4.43;3.80;;;;;;;19.90;100.00;100750.91;5022221;28;20029;-85
2022/07/25 04:43:04;;;;;;;5.43;4.43;;;;;;;19.93;100.00;100744.41;5022669;28;20162;-85
2022/07/25 04:45:30;;;;;;;5.10;4.43;;;;;;;19.94;100.00;100741.59;5022406;28;20037;-84
2022/07/25 04:47:56;;;;;;;5.38;4.30;;;;;;;19.94;100.00;100744.28;5021511;28;20043;-84
2022/07/25 04:50:21;;;;;;;6.97;4.95;;;;;;;19.93;100.00;100745.25;5019822;28;20025;-83
2022/07/25 04:52:47;;;;;;;5.60;4.72;;;;;;;19.95;100.00;100737.94;5021801;28;20209;-83
2022/07/25 04:55:12;;;;;;;5.30;4.63;;;;;;;19.97;100.00;100742.31;5004792;28;20029;-84
2022/07/25 04:57:41;;;;;;;7.10;5.20;;;;;;;19.99;100.00;100737.69;5007361;28;20141;-83
2022/07/25 05:00:08;;;;;;;6.82;5.20;;;;;;;20.01;100.00;100733.03;5025104;28;20064;-86
2022/07/25 05:02:34;;;;;;;6.20;5.10;;;;;;;20.02;100.00;100729.34;5008109;28;20618;-88
2022/07/25 05:04:59;;;;;;;6.93;4.93;;;;;;;20.04;100.00;100730.09;4992087;28;20115;-85
2022/07/25 05:07:25;;;;;;;6.30;4.90;;;;;;;20.06;100.00;100733.47;5025953;28;20660;-85
2022/07/25 05:09:50;;;;;;;6.80;5.13;;;;;;;20.06;100.00;100728.94;5025442;28;20032;-85
2022/07/25 05:12:16;;;;;;;6.32;5.05;;;;;;;20.07;100.00;100727.13;5024679;28;20510;-84
2022/07/25 05:14:41;;;;;;;6.75;5.07;;;;;;;20.10;100.00;100723.31;5025723;28;20033;-85
2022/07/25 05:17:07;;;;;;;6.90;5.30;;;;;;;20.10;100.00;100729.50;5025036;28;20029;-85
2022/07/25 05:19:32;;;;;;;6.75;5.35;;;;;;;20.12;100.00;100735.63;5025245;28;20029;-85
2022/07/25 05:21:58;;;;;;;6.90;5.38;;;;;;;20.11;100.00;100725.88;5025651;28;20041;-86
2022/07/25 05:24:23;;;;;;;9.45;5.10;;;;;;;20.12;100.00;100722.19;5025737;28;20035;-85
2022/07/25 05:26:49;;;;;;;7.78;5.35;;;;;;;20.12;100.00;100719.50;5022938;28;20562;-85
2022/07/25 05:29:18;;;;;;;7.15;5.47;;;;;;;20.12;100.00;100722.19;5025849;28;20037;-85
2022/07/25 05:31:43;;;;;;;8.00;5.22;;;;;;;20.13;100.00;100721.19;4993453;28;20025;-85
2022/07/25 05:34:09;;;;;;;6.97;5.28;;;;;;;20.15;100.00;100729.97;5024257;28;20052;-84
2022/07/25 05:36:34;;;;;;;6.53;5.55;;;;;;;20.18;100.00;100737.78;5024492;28;20029;-85
2022/07/25 05:39:00;;;;;;;6.53;5.07;;;;;;;20.22;100.00;100739.19;5024541;28;20120;-85
2022/07/25 05:41:25;;;;;;;7.63;5.25;;;;;;;20.25;100.00;100732.69;5024464;28;20122;-83
2022/07/25 05:43:51;;;;;;;7.15;5.40;;;;;;;20.30;100.00;100724.22;5025467;28;20037;-85
2022/07/25 05:46:17;;;;;;;6.32;4.90;;;;;;;20.36;100.00;100715.59;5024621;28;20049;-86
2022/07/25 05:48:42;;;;;;;6.40;5.35;;;;;;;20.42;100.00;100712.38;5024300;28;20839;-84
2022/07/25 05:51:08;;;;;;;7.85;5.93;;;;;;;20.49;100.00;100713.53;5024475;28;20180;-84
2022/07/25 05:53:33;;;;;;;7.93;5.57;;;;;;;20.58;100.00;100710.97;5024311;28;20029;-83
2022/07/25 05:55:59;;;;;;;7.85;5.60;;;;;;;20.69;100.00;100713.56;5024207;28;20436;-83
2022/07/25 05:58:24;;;;;;;7.15;5.53;;;;;;;20.79;100.00;100712.72;5006498;28;20039;-83
2022/07/25 06:00:50;;;;;;;9.07;5.60;;;;;;;20.89;100.00;100724.38;5023446;28;20424;-84
2022/07/25 06:03:18;;;;;;;6.15;5.18;;;;;;;20.99;100.00;100719.00;5024384;28;20392;-84
2022/07/25 06:05:47;;;;;;;7.25;5.60;;;;;;;21.12;100.00;100724.94;5024159;28;20485;-83
2022/07/25 06:08:13;;;;;;;7.90;5.68;;;;;;;21.23;100.00;100726.66;5022917;28;20048;-83
2022/07/25 06:10:40;;;;;;;7.07;5.90;;;;;;;21.30;100.00;100730.47;5024124;28;20048;-83
2022/07/25 06:13:05;;;;;;;7.30;5.55;;;;;;;21.38;100.00;100745.03;5024242;28;20021;-83
2022/07/25 06:15:31;;;;;;;6.38;5.55;;;;;;;21.41;100.00;100734.00;5023456;28;20107;-84
2022/07/25 06:17:56;;;;;;;6.63;5.60;;;;;;;21.44;100.00;100733.72;5023248;28;20033;-84
2022/07/25 06:20:22;;;;;;;7.55;5.63;;;;;;;21.49;100.00;100709.03;5023828;28;20040;-84
2022/07/25 06:22:47;;;;;;;8.98;6.05;;;;;;;21.65;100.00;100711.13;5023611;28;20577;-84
2022/07/25 06:25:16;;;;;;;7.53;5.53;;;;;;;21.88;100.00;100714.34;5023841;28;20364;-82
2022/07/25 06:27:41;;;;;;;9.70;5.55;;;;;;;22.13;100.00;100711.13;5005615;28;20060;-81
2022/07/25 06:30:08;;;;;;;6.70;4.93;;;;;;;22.42;100.00;100712.81;5023335;28;20041;-83
2022/07/25 06:32:34;;;;;;;6.85;5.50;;;;;;;22.58;96.98;100726.53;5023194;28;20108;-83
2022/07/25 06:35:00;;;;;;;7.32;5.50;;;;;;;22.67;95.52;100723.91;5005498;28;20049;-83
2022/07/25 06:37:25;;;;;;;6.40;4.85;;;;;;;22.76;94.01;100717.59;5023349;28;20057;-81
2022/07/25 06:39:51;;;;;;;7.28;5.50;;;;;;;22.97;94.61;100719.13;5023180;28;20697;-83
2022/07/25 06:42:16;;;;;;;5.30;4.40;;;;;;;23.16;94.25;100720.84;5023682;28;20030;-80
2022/07/25 06:44:42;;;;;;;5.38;4.18;;;;;;;23.39;92.65;100725.78;5022939;28;20033;-81
2022/07/25 06:47:11;;;;;;;5.60;4.00;;;;;;;23.62;90.70;100734.22;5022887;28;20419;-83
2022/07/25 06:49:40;;;;;;;5.97;3.72;;;;;;;23.67;87.64;100739.13;5007176;28;21485;-82
2022/07/25 06:52:06;;;;;;;6.18;3.47;;;;;;;23.68;83.62;100733.59;5023481;28;20052;-82
2022/07/25 06:54:32;;;;;;;3.80;2.92;;;;;;;23.70;85.52;100728.88;5007035;28;20044;-82
2022/07/25 06:56:58;;;;;;;4.25;3.08;;;;;;;23.72;84.58;100724.16;5022725;28;20100;-82
2022/07/25 06:59:23;;;;;;;3.58;2.78;;;;;;;23.76;84.69;100718.44;5023020;28;20036;-82
2022/07/25 07:01:49;;;;;;;3.35;2.85;;;;;;;23.77;83.25;100706.59;5022824;28;20055;-82
2022/07/25 07:04:17;;;;;;;4.18;2.92;;;;;;;23.69;81.83;100708.25;5023555;28;20029;-82
2022/07/25 07:06:42;;;;;;;2.78;2.35;;;;;;;23.64;82.03;100705.19;4992150;28;20033;-83
2022/07/25 07:09:08;;;;;;;3.03;2.47;;;;;;;23.60;81.36;100709.22;5022372;28;20114;-81
2022/07/25 07:11:34;;;;;;;2.80;1.88;;;;;;;23.54;80.59;100716.09;5022561;28;20045;-81
2022/07/25 07:14:02;;;;;;;2.40;2.20;;;;;;;23.56;79.98;100718.63;5022318;28;20041;-82
2022/07/25 07:16:31;;;;;;;3.40;2.30;;;;;;;23.55;78.71;100711.53;5022765;28;20029;-82
2022/07/25 07:18:57;;;;;;;2.80;1.70;;;;;;;23.66;80.42;100715.84;5022521;28;20489;-81
2022/07/25 07:21:23;;;;;;;2.42;1.70;;;;;;;23.82;78.78;100734.88;5022712;28;20033;-81
2022/07/25 07:23:48;;;;;;;1.80;1.50;;;;;;;24.00;77.81;100725.81;5004975;28;20600;-83
2022/07/25 07:26:17;;;;;;;1.60;1.50;;;;;;;24.12;76.66;100729.13;5022814;28;20033;-80
2022/07/25 07:28:42;;;;;;;1.65;1.48;;;;;;;24.13;74.94;100720.84;5004384;28;20088;-79
2022/07/25 07:31:08;;;;;;;3.28;1.52;;;;;;;24.05;74.24;100698.31;5021880;28;20131;-83
2022/07/25 07:33:34;;;;;;;1.85;1.30;;;;;;;23.86;73.55;100692.97;5004673;28;20056;-81
2022/07/25 07:36:00;;;;;;;1.40;1.30;;;;;;;23.67;73.86;100677.00;5004219;28;20033;-83
2022/07/25 07:38:26;;;;;;;1.60;1.40;;;;;;;23.44;74.78;100656.75;5022507;28;20037;-79
2022/07/25 07:40:52;;;;;;;1.88;1.52;;;;;;;23.22;74.67;100690.53;5022546;28;20055;-81
2022/07/25 07:43:18;;;;;;;1.50;1.40;;;;;;;23.02;75.97;100717.69;5022180;28;20077;-85
2022/07/25 07:45:46;;;;;;;2.03;1.52;;;;;;;22.79;76.67;100728.09;5022250;28;20159;-85
2022/07/25 07:48:12;;;;;;;1.40;1.30;;;;;;;22.58;77.31;100726.53;5022689;28;20041;-83
2022/07/25 07:50:38;;;;;;;2.85;1.70;;;;;;;22.41;77.70;100714.69;5022302;28;20032;-83
2022/07/25 07:53:04;;;;;;;1.65;1.20;;;;;;;22.24;78.23;100708.25;5014975;28;20112;-81
2022/07/25 07:55:45;;;;;;;1.50;1.20;;;;;;;22.08;78.57;100714.28;4985829;28;20040;-81
2022/07/25 07:58:16;;;;;;;2.22;1.30;;;;;;;21.96;78.75;100722.53;5015806;28;20420;-80
2022/07/25 08:00:43;;;;;;;1.60;1.20;;;;;;;21.86;79.45;100721.75;5022294;28;20087;-81
2022/07/25 08:03:09;;;;;;;1.50;1.40;;;;;;;21.76;79.65;100737.94;5021046;28;20427;-77
2022/07/25 08:05:45;;;;;;;2.28;1.30;;;;;;;21.65;79.93;100724.59;5004939;28;20116;-79
2022/07/25 08:08:13;;;;;;;1.25;1.15;;;;;;;21.57;80.38;100712.72;5006357;28;20103;-76
2022/07/25 08:10:41;;;;;;;1.50;1.40;;;;;;;21.52;81.15;100731.13;5011624;28;20388;-78
2022/07/25 08:13:18;;;;;;;2.08;1.38;;;;;;;21.45;81.14;100724.63;5023281;28;20037;-75
2022/07/25 08:15:46;;;;;;;1.65;1.23;;;;;;;21.44;81.69;100707.66;5023610;28;20399;-78
2022/07/25 08:18:12;;;;;;;1.70;1.38;;;;;;;21.49;81.83;100709.03;5024776;28;20044;-78
2022/07/25 08:20:37;;;;;;;1.73;1.38;;;;;;;21.55;82.34;100720.09;5024059;28;20462;-77
2022/07/25 08:23:03;;;;;;;2.42;1.88;;;;;;;21.63;82.44;100702.34;5024487;28;20071;-80
2022/07/25 08:25:29;;;;;;;1.48;1.30;;;;;;;21.77;82.92;100707.31;5007193;28;20112;-79
2022/07/25 08:27:54;;;;;;;1.88;1.33;;;;;;;21.89;82.55;100731.38;5021751;28;20025;-82
2022/07/25 08:30:22;;;;;;;3.17;1.30;;;;;;;21.92;81.90;100725.69;5021860;28;20052;-80
2022/07/25 08:32:50;;;;;;;2.90;1.45;;;;;;;21.92;81.73;100718.47;5028007;28;20103;-81
2022/07/25 08:35:19;;;;;;;1.73;1.40;;;;;;;21.93;81.10;100714.78;5007820;28;20072;-82
2022/07/25 08:37:48;;;;;;;2.28;1.40;;;;;;;21.93;81.23;100722.00;4990448;28;20638;-72
2022/07/25 08:40:15;;;;;;;2.08;1.38;;;;;;;21.97;80.65;100734.19;5005259;28;20476;-72
2022/07/25 08:42:40;;;;;;;1.90;1.52;;;;;;;22.00;81.61;100733.03;5007061;28;20385;-73
2022/07/25 08:45:08;;;;;;;1.42;1.30;;;;;;;22.06;81.64;100733.28;5024898;28;20397;-73
2022/07/25 08:47:34;;;;;;;2.05;1.80;;;;;;;22.15;81.71;100733.38;5009204;28;20035;-73
2022/07/25 08:50:06;;;;;;;3.58;1.58;;;;;;;22.31;82.23;100736.31;5025617;28;20036;-72
2022/07/25 08:52:35;;;;;;;1.33;1.23;;;;;;;22.44;81.00;100735.94;5024648;28;20079;-72
2022/07/25 08:55:02;;;;;;;1.38;1.20;;;;;;;22.50;79.88;100740.72;5023939;28;21508;-72
2022/07/25 08:57:28;;;;;;;1.80;1.30;;;;;;;22.50;80.19;100746.13;5007323;28;20137;-72
2022/07/25 08:59:57;;;;;;;2.00;1.20;;;;;;;22.48;80.01;100726.56;5006977;28;20120;-71
2022/07/25 09:02:26;;;;;;;1.92;1.20;;;;;;;22.45;80.28;100720.63;5006433;28;20171;-72
2022/07/25 09:04:51;;;;;;;1.42;1.23;;;;;;;22.37;80.28;100713.28;5025319;28;20198;-72
2022/07/25 09:07:17;;;;;;;1.45;1.00;;;;;;;22.27;80.59;100720.59;5024192;28;20563;-71
2022/07/25 09:09:43;;;;;;;2.95;1.33;;;;;;;22.17;81.24;100702.59;5004197;28;20045;-72
2022/07/25 09:12:09;;;;;;;1.45;1.35;;;;;;;22.05;83.35;100752.31;5023845;28;20033;-72
2022/07/25 09:14:42;;;;;;;5.00;1.52;;;;;;;21.87;85.28;100746.81;5005848;28;20498;-72
2022/07/25 09:17:08;;;;;;;4.68;1.30;;;;;;;21.69;85.85;100732.25;5006500;28;20591;-72
2022/07/25 09:19:35;;;;;;;1.52;1.40;;;;;;;21.56;86.44;100753.25;5008513;28;20033;-72
2022/07/25 09:22:04;;;;;;;2.95;1.70;;;;;;;21.41;88.55;100750.16;4992657;28;20044;-72
2022/07/25 09:24:29;;;;;;;2.03;1.40;;;;;;;21.27;89.05;100735.28;5023420;28;20038;-72
2022/07/25 09:27:08;;;;;;;1.80;1.20;;;;;;;21.19;90.57;100749.44;5024122;28;20087;-72
2022/07/25 09:29:35;;;;;;;3.17;1.70;;;;;;;21.17;90.47;100762.19;5008693;28;20033;-71
2022/07/25 09:32:16;;;;;;;3.42;1.73;;;;;;;21.12;92.95;100765.31;5023400;28;20025;-72
2022/07/25 09:34:47;;;;;;;3.13;1.50;;;;;;;21.12;91.78;100786.00;4989305;28;20657;-73
2022/07/25 09:37:16;;;;;;;2.53;1.80;;;;;;;21.17;93.79;100783.72;5025396;28;20029;-73
2022/07/25 09:39:47;;;;;;;1.98;1.50;;;;;;;21.30;93.94;100786.16;5008935;28;20079;-73
2022/07/25 09:42:19;;;;;;;2.67;1.58;;;;;;;21.39;94.96;100796.06;5024745;28;20021;-74
2022/07/25 09:44:56;;;;;;;3.85;1.60;;;;;;;21.38;94.35;100793.50;5024842;28;20388;-74
2022/07/25 09:47:22;;;;;;;2.75;1.52;;;;;;;21.33;93.55;100785.88;5006040;28;21418;-74
2022/07/25 09:49:48;;;;;;;3.78;1.60;;;;;;;21.37;94.25;100770.28;5025260;28;20064;-73
2022/07/25 09:52:15;;;;;;;4.95;2.15;;;;;;;21.40;94.55;100756.50;4993644;28;20492;-73
2022/07/25 09:54:41;;;;;;;2.05;1.42;;;;;;;21.45;94.96;100746.16;5023680;28;20033;-73
2022/07/25 09:57:06;;;;;;;4.57;1.70;;;;;;;21.49;95.16;100752.13;5023402;28;21421;-73
2022/07/25 09:59:33;;;;;;;2.83;1.90;;;;;;;21.55;94.76;100760.50;5024104;28;20792;-72
2022/07/25 10:02:41;;;;;;;2.30;1.70;;;;;;;21.68;95.39;100765.56;5023879;28;20056;-73
2022/07/25 10:05:10;;;;;;;1.90;1.30;;;;;;;21.86;92.78;100759.47;5011018;28;20057;-71
2022/07/25 10:07:37;;;;;;;1.45;1.35;;;;;;;22.11;92.56;100755.25;5024183;28;20064;-73
2022/07/25 10:10:03;;;;;;;2.80;1.55;;;;;;;22.41;91.51;100776.72;5004233;28;20092;-72
2022/07/25 10:12:29;;;;;;;2.45;1.40;;;;;;;22.60;89.89;100767.69;4992713;28;20289;-72
2022/07/25 10:15:12;;;;;;;3.33;1.90;;;;;;;22.70;87.78;100753.31;4992853;28;20045;-73
2022/07/25 10:17:39;;;;;;;2.80;1.58;;;;;;;22.74;88.40;100760.94;5022705;28;21628;-72
2022/07/25 10:20:07;;;;;;;3.85;1.50;;;;;;;22.72;87.10;100764.78;5024286;28;20029;-72
2022/07/25 10:22:39;;;;;;;4.05;1.60;;;;;;;22.65;86.38;100765.38;5024032;28;20024;-72
2022/07/25 10:25:17;;;;;;;1.58;1.45;;;;;;;22.60;86.81;100767.69;5022452;28;20033;-73
2022/07/25 10:27:49;;;;;;;4.78;1.40;;;;;;;22.59;86.71;100779.47;4998288;28;20033;-72
2022/07/25 10:30:22;;;;;;;3.22;1.38;;;;;;;22.49;86.29;100781.34;5015759;28;20025;-71
2022/07/25 10:32:50;;;;;;;3.35;1.42;;;;;;;22.35;86.53;100797.00;5023347;28;20032;-72
2022/07/25 10:35:16;;;;;;;3.03;1.17;;;;;;;22.33;87.02;100793.63;5022609;28;20033;-72
2022/07/25 10:37:43;;;;;;;3.08;1.15;;;;;;;22.36;86.18;100811.34;5022960;28;20060;-72
2022/07/25 10:40:10;;;;;;;3.50;1.65;;;;;;;22.30;85.49;100812.81;4974937;28;20029;-72
2022/07/25 10:42:35;;;;;;;4.18;1.30;;;;;;;22.14;85.42;100810.72;5004038;28;20162;-73
2022/07/25 10:45:04;;;;;;;4.00;1.60;;;;;;;22.00;85.65;100824.66;5023777;28;20037;-72
2022/07/25 10:47:36;;;;;;;4.90;1.20;;;;;;;21.86;85.36;100817.88;5020572;28;20087;-71
2022/07/25 10:50:02;;;;;;;3.40;1.20;;;;;;;21.72;84.59;100824.59;5022569;28;20033;-70
2022/07/25 10:52:29;;;;;;;1.70;1.27;;;;;;;21.62;84.84;100816.47;4991534;28;20056;-72
2022/07/25 10:54:59;;;;;;;4.05;1.40;;;;;;;21.61;84.69;100804.84;5023385;28;20037;-71
2022/07/25 10:57:25;;;;;;;2.75;1.20;;;;;;;21.67;85.25;100798.88;5024233;28;20056;-72
2022/07/25 10:59:51;;;;;;;2.85;1.55;;;;;;;21.77;85.40;100808.81;5007025;28;20078;-72
2022/07/25 11:02:17;;;;;;;3.17;1.48;;;;;;;21.84;85.36;100815.31;5023473;28;20049;-71
2022/07/25 11:04:45;;;;;;;2.40;1.33;;;;;;;21.89;85.31;100821.13;5003069;28;20037;-70
2022/07/25 11:07:12;;;;;;;2.30;1.50;;;;;;;21.90;85.57;100813.91;5022537;28;20512;-72
2022/07/25 11:09:40;;;;;;;2.95;1.35;;;;;;;21.92;85.14;100814.59;5019099;28;20044;-71
2022/07/25 11:12:06;;;;;;;4.22;1.30;;;;;;;21.90;84.62;100816.59;5002282;28;20060;-72
2022/07/25 11:14:38;;;;;;;2.75;1.38;;;;;;;21.86;84.37;100810.66;5005420;28;20038;-72
2022/07/25 11:17:18;;;;;;;1.67;1.40;;;;;;;21.84;83.98;100821.56;5002835;28;20128;-72
2022/07/25 11:19:54;;;;;;;2.40;1.27;;;;;;;21.82;83.66;100823.56;5021438;28;20042;-72
2022/07/25 11:22:20;;;;;;;4.28;1.10;;;;;;;21.86;83.59;100824.13;5022751;28;20041;-71